Terminal Aerodrome Forecast
Issued by NWS

Home | Current Version | Previous Version | Text Only | Print | Product List | Glossary On
Versions: 1 2 3 4 5 6 7 8 9 10 11 12 13 14 15 16
000
FTAK31 PANC 290532
TAFADL
TAF
PADL 290532Z 2906/3006 08013G20KT P6SM VCSH SCT040 BKN060
     FM291800 08014G22KT P6SM -SHRA SCT015 BKN025
     FM292100 13013KT P6SM -SHRA SCT015 BKN025=

USA.gov is the U.S. government's official web portal to all federal, state and local government web resources and services.